createdAt,value
2023-03-08T00:00:22.458Z,54.97
2023-03-08T00:05:24.134Z,55.96
2023-03-08T00:10:25.670Z,56.18
2023-03-08T00:15:27.180Z,56.14
2023-03-08T00:20:28.642Z,56.03
2023-03-08T00:25:32.304Z,55.76
2023-03-08T00:30:33.971Z,55.71
2023-03-08T00:35:35.441Z,55.43
2023-03-08T00:40:36.907Z,55.64
2023-03-08T00:45:38.332Z,56.62
2023-03-08T00:50:39.787Z,56.84
2023-03-08T00:55:52.989Z,57.17
2023-03-08T01:00:55.040Z,56.99
2023-03-08T01:05:58.179Z,57.36
2023-03-08T01:11:00.670Z,57.17
2023-03-08T01:16:03.195Z,56.80
2023-03-08T01:21:05.101Z,56.90
2023-03-08T01:26:12.453Z,57.11
2023-03-08T01:31:17.539Z,58.18
2023-03-08T01:36:21.766Z,57.49
2023-03-08T01:41:27.387Z,58.17
2023-03-08T01:46:33.904Z,57.44
2023-03-08T01:51:42.226Z,57.92
2023-03-08T01:56:46.489Z,58.02
2023-03-08T02:01:51.209Z,58.53
2023-03-08T02:06:52.865Z,58.57
2023-03-08T02:11:58.018Z,58.73
2023-03-08T02:16:59.502Z,58.74
2023-03-08T02:22:08.961Z,57.99
2023-03-08T02:27:25.018Z,57.98
2023-03-08T02:32:26.477Z,58.07
2023-03-08T02:37:28.159Z,58.08
2023-03-08T02:42:29.627Z,57.76
2023-03-08T02:47:31.070Z,57.70
2023-03-08T02:52:32.515Z,57.73
2023-03-08T02:57:34.000Z,57.58
2023-03-08T03:02:36.005Z,58.00
2023-03-08T03:07:39.557Z,58.36
2023-03-08T03:12:41.166Z,57.43
2023-03-08T03:17:42.613Z,58.85
2023-03-08T03:22:44.907Z,58.78
2023-03-08T03:27:47.081Z,58.58
2023-03-08T03:32:48.661Z,58.19
2023-03-08T03:37:50.315Z,58.94
2023-03-08T03:42:51.799Z,58.42
2023-03-08T03:47:53.242Z,58.51
2023-03-08T03:52:54.719Z,58.75
2023-03-08T03:57:56.468Z,58.72
2023-03-08T04:02:57.973Z,58.82
2023-03-08T04:07:59.690Z,59.19
2023-03-08T04:13:01.345Z,59.16
2023-03-08T04:18:02.874Z,59.17
2023-03-08T04:23:04.314Z,59.00
2023-03-08T04:28:05.726Z,58.88
2023-03-08T04:33:07.172Z,59.00
2023-03-08T04:38:08.668Z,59.41
2023-03-08T04:43:10.126Z,58.96
2023-03-08T04:48:12.031Z,59.63
2023-03-08T04:53:13.470Z,60.16
2023-03-08T04:58:14.999Z,59.96
2023-03-08T05:03:16.788Z,59.45
2023-03-08T05:08:19.455Z,58.91
2023-03-08T05:13:21.000Z,58.79
2023-03-08T05:18:22.583Z,58.89
2023-03-08T05:23:26.300Z,59.37
2023-03-08T05:28:32.907Z,59.03
2023-03-08T05:33:35.745Z,58.80
2023-03-08T05:38:37.192Z,59.77
2023-03-08T05:43:38.689Z,59.51
2023-03-08T05:48:41.050Z,59.79
2023-03-08T05:53:42.886Z,60.17
2023-03-08T05:58:47.369Z,60.40
2023-03-08T06:03:52.061Z,60.67
2023-03-08T06:08:54.200Z,59.93
2023-03-08T06:13:55.829Z,60.80
2023-03-08T06:18:57.301Z,60.39
2023-03-08T06:23:58.735Z,60.90
2023-03-08T06:29:00.323Z,60.40
2023-03-08T06:34:01.983Z,61.34
2023-03-08T06:39:03.637Z,63.27
2023-03-08T06:44:05.243Z,63.88
2023-03-08T06:49:07.852Z,64.79
2023-03-08T06:54:09.346Z,68.35
2023-03-08T06:59:11.955Z,70.01
2023-03-08T07:04:13.425Z,72.51
2023-03-08T07:09:14.951Z,73.48
2023-03-08T07:14:16.441Z,73.76
2023-03-08T07:19:17.916Z,72.85
2023-03-08T07:24:19.365Z,73.28
2023-03-08T07:29:20.864Z,73.37
2023-03-08T07:34:22.342Z,73.53
2023-03-08T07:39:23.819Z,76.10
2023-03-08T07:44:25.284Z,79.03
2023-03-08T07:49:26.749Z,84.42
2023-03-08T07:54:28.460Z,82.26
2023-03-08T07:59:30.335Z,81.89
2023-03-08T08:04:31.820Z,85.39
2023-03-08T08:09:33.942Z,84.64
2023-03-08T08:14:35.584Z,81.49
2023-03-08T08:19:37.975Z,81.12
2023-03-08T08:24:39.437Z,85.01
2023-03-08T08:29:40.950Z,83.58
2023-03-08T08:34:42.623Z,84.77
2023-03-08T08:39:44.235Z,85.95
2023-03-08T08:44:45.760Z,88.03
2023-03-08T08:49:47.738Z,85.97
2023-03-08T08:54:49.230Z,85.10
2023-03-08T08:59:50.924Z,84.28
2023-03-08T09:04:52.465Z,83.44
2023-03-08T09:09:54.992Z,84.05
2023-03-08T09:14:56.657Z,83.32
2023-03-08T09:19:59.223Z,82.79
2023-03-08T09:25:00.727Z,83.28
2023-03-08T09:30:02.607Z,83.28
2023-03-08T09:35:05.758Z,83.41
2023-03-08T09:40:11.293Z,82.31
2023-03-08T09:45:28.231Z,84.09
2023-03-08T09:50:33.987Z,82.88
2023-03-08T09:55:43.259Z,83.59
2023-03-08T10:00:46.801Z,83.01
2023-03-08T10:05:53.767Z,82.56
2023-03-08T10:11:07.726Z,83.25
2023-03-08T10:16:27.424Z,83.58
2023-03-08T10:21:32.893Z,83.12
2023-03-08T10:26:35.242Z,83.46
2023-03-08T10:31:36.832Z,84.30
2023-03-08T10:37:08.808Z,85.24
2023-03-08T10:42:16.167Z,85.54
2023-03-08T10:47:30.132Z,85.45
2023-03-08T10:52:32.103Z,86.36
2023-03-08T10:57:34.076Z,86.25
2023-03-08T11:02:35.569Z,88.48
2023-03-08T11:07:37.508Z,90.97
2023-03-08T11:12:39.615Z,92.25
2023-03-08T11:18:06.335Z,90.24
2023-03-08T11:23:32.453Z,88.76
2023-03-08T11:28:56.772Z,89.12
2023-03-08T11:34:43.173Z,87.96
2023-03-08T11:40:26.447Z,86.64
2023-03-08T11:45:44.375Z,85.14
2023-03-08T11:50:49.105Z,84.24
2023-03-08T11:56:12.145Z,82.47
2023-03-08T12:01:24.164Z,81.77
2023-03-08T12:06:56.547Z,81.77
2023-03-08T12:11:58.410Z,80.69
2023-03-08T12:17:09.161Z,80.46
2023-03-08T12:22:31.288Z,80.54
2023-03-08T12:27:44.720Z,79.33
2023-03-08T12:32:48.362Z,78.84
2023-03-08T12:38:03.863Z,78.17
2023-03-08T12:43:14.856Z,78.47
2023-03-08T12:48:21.956Z,78.16
2023-03-08T12:53:26.480Z,77.88
2023-03-08T12:58:29.102Z,78.25
2023-03-08T13:03:42.397Z,77.91
2023-03-08T13:08:53.172Z,77.91
2023-03-08T13:14:01.564Z,77.54
2023-03-08T13:19:17.827Z,77.47
2023-03-08T13:24:37.060Z,77.90
2023-03-08T13:29:41.730Z,78.12
2023-03-08T13:34:46.376Z,79.88
2023-03-08T13:39:59.520Z,82.17
2023-03-08T13:45:16.292Z,83.49
2023-03-08T13:50:21.549Z,84.78
2023-03-08T13:55:34.865Z,84.95
2023-03-08T14:00:36.841Z,84.88
2023-03-08T14:05:43.711Z,84.70
2023-03-08T14:10:51.884Z,86.28
2023-03-08T14:16:07.821Z,87.91
2023-03-08T14:21:17.961Z,88.04
2023-03-08T14:27:02.466Z,89.15
2023-03-08T14:32:13.225Z,89.35
2023-03-08T14:37:26.035Z,89.09
2023-03-08T14:42:35.916Z,87.88
2023-03-08T14:47:37.707Z,87.95
2023-03-08T14:52:45.667Z,87.55
2023-03-08T14:57:47.864Z,86.82
2023-03-08T15:02:49.892Z,86.51
2023-03-08T15:07:52.405Z,86.06
2023-03-08T15:12:54.010Z,85.30
2023-03-08T15:17:55.608Z,84.64
2023-03-08T15:23:00.699Z,84.22
2023-03-08T15:28:02.650Z,84.40
2023-03-08T15:33:05.505Z,83.11
2023-03-08T15:38:07.423Z,81.60
2023-03-08T15:43:09.836Z,81.28
2023-03-08T15:48:17.059Z,81.29
2023-03-08T15:53:29.597Z,80.75
2023-03-08T15:58:36.093Z,81.00
2023-03-08T16:03:38.185Z,80.21
2023-03-08T16:08:40.931Z,80.02
2023-03-08T16:13:42.621Z,79.89
2023-03-08T16:18:44.680Z,79.85
2023-03-08T16:23:46.145Z,79.65
2023-03-08T16:28:48.509Z,79.48
2023-03-08T16:33:50.027Z,79.01
2023-03-08T16:38:52.234Z,78.41
2023-03-08T16:43:55.889Z,77.84
2023-03-08T16:48:57.601Z,77.35
2023-03-08T16:53:59.968Z,77.08
2023-03-08T16:59:02.224Z,77.05
2023-03-08T17:04:04.236Z,76.86
2023-03-08T17:09:06.585Z,76.73
2023-03-08T17:14:12.802Z,76.69
2023-03-08T17:19:14.522Z,75.91
2023-03-08T17:24:16.140Z,76.58
2023-03-08T17:29:18.168Z,76.66
2023-03-08T17:34:23.616Z,76.76
2023-03-08T17:39:25.686Z,76.86
2023-03-08T17:44:27.127Z,76.75
2023-03-08T17:49:28.665Z,77.35
2023-03-08T17:54:30.772Z,77.09
2023-03-08T17:59:32.191Z,79.55
2023-03-08T18:04:34.811Z,81.60
2023-03-08T18:09:36.567Z,82.32
2023-03-08T18:14:40.112Z,82.43
2023-03-08T18:19:43.067Z,81.54
2023-03-08T18:24:44.670Z,84.16
2023-03-08T18:29:46.116Z,87.29
2023-03-08T18:34:48.196Z,87.01
2023-03-08T18:39:54.510Z,87.37
2023-03-08T18:44:56.531Z,88.51
2023-03-08T18:49:58.367Z,87.44
2023-03-08T18:54:59.880Z,86.71
2023-03-08T19:00:06.314Z,87.18
2023-03-08T19:05:08.247Z,89.49
2023-03-08T19:10:14.917Z,91.39
2023-03-08T19:15:16.523Z,91.40
2023-03-08T19:20:18.061Z,92.85
2023-03-08T19:25:20.869Z,94.09
2023-03-08T19:30:24.338Z,94.97
2023-03-08T19:35:25.791Z,95.13
2023-03-08T19:40:27.274Z,95.33
2023-03-08T19:45:28.789Z,96.86
2023-03-08T19:50:30.234Z,97.25
2023-03-08T19:55:31.787Z,99.51
2023-03-08T20:00:33.241Z,100.00
2023-03-08T20:05:48.478Z,100.00
2023-03-08T20:10:50.261Z,100.00
2023-03-08T20:15:51.797Z,100.00
2023-03-08T20:20:53.320Z,100.00
2023-03-08T20:25:54.822Z,100.00
2023-03-08T20:30:56.345Z,100.00
2023-03-08T20:35:59.298Z,100.00
2023-03-08T20:41:12.092Z,100.00
2023-03-08T20:46:16.366Z,100.00
2023-03-08T20:51:20.244Z,100.00
2023-03-08T20:56:23.932Z,100.00
2023-03-08T21:01:31.453Z,100.00
2023-03-08T21:06:34.038Z,100.00
2023-03-08T21:11:35.712Z,100.00
2023-03-08T21:16:37.847Z,100.00
2023-03-08T21:21:42.901Z,100.00
2023-03-08T21:26:45.719Z,100.00
2023-03-08T21:31:52.529Z,100.00
2023-03-08T21:36:54.066Z,100.00
2023-03-08T21:41:57.127Z,100.00
2023-03-08T21:46:59.036Z,100.00
2023-03-08T21:52:01.857Z,100.00
2023-03-08T21:57:03.768Z,100.00
2023-03-08T22:02:05.552Z,100.00
2023-03-08T22:07:07.408Z,100.00
2023-03-08T22:12:08.935Z,100.00
2023-03-08T22:17:10.375Z,100.00
2023-03-08T22:22:11.871Z,100.00
2023-03-08T22:27:14.240Z,100.00
2023-03-08T22:32:16.440Z,100.00
2023-03-08T22:37:17.948Z,100.00
2023-03-08T22:42:19.404Z,100.00
2023-03-08T22:47:21.058Z,100.00
2023-03-08T22:52:23.229Z,100.00
2023-03-08T22:57:25.252Z,100.00
2023-03-08T23:02:28.445Z,100.00
2023-03-08T23:07:30.060Z,100.00
2023-03-08T23:12:31.497Z,100.00
2023-03-08T23:17:33.181Z,100.00
2023-03-08T23:22:34.834Z,100.00
2023-03-08T23:27:36.884Z,100.00
2023-03-08T23:32:38.425Z,100.00
2023-03-08T23:37:40.458Z,100.00
2023-03-08T23:42:42.217Z,100.00
2023-03-08T23:47:43.741Z,100.00
2023-03-08T23:52:45.901Z,100.00
2023-03-08T23:57:47.590Z,100.00
